Terminal Aerodrome Forecast
Issued by NWS Blacksburg, VA

Current Version | Previous Version | Text Only | Print | Product List | Glossary Off
Versions: 1 2 3 4 5 6 7 8 9 10 11 12 13 14 15 16 17 18 19 20 21 22 23 24 25 26 27 28 29 30 31 32 33 34 35 36 37 38 39 40 41

000
FTUS41 KRNK 291730
TAFBLF
TAF
KBLF 291730Z 2918/3018 16007KT P6SM SCT030
     FM291900 16007KT P6SM VCSH BKN030
     FM292200 16006KT P6SM VCSH BKN040
     FM300300 15005KT P6SM BKN025
     FM300800 15004KT 5SM BR BKN020
     FM301400 22006KT P6SM FEW025 BKN060=

USA.gov is the U.S. government's official web portal to all federal, state and local government web resources and services.